Time;durP1;ratioP1;P1;durP2;ratioP2;P2;SDS_P1;SDS_P2;PMS_P1;PMS_P2;Temp;Humidity;BMP_temperature;BMP_pressure;BME280_temperature;BME280_humidity;BME280_pressure;Samples;Min_cycle;Max_cycle;Signal;HPM_P1;HPM_P2
2021/01/21 00:00:47;;;;;;;11.30;8.47;;;3.10;90.90;10.60;98631.00;;;;5032288;28;20182;-66
2021/01/21 00:03:12;;;;;;;10.57;8.03;;;3.10;90.90;10.60;98605.00;;;;5032596;28;20198;-67
2021/01/21 00:05:38;;;;;;;10.57;7.37;;;3.10;90.90;10.60;98631.00;;;;5050215;28;20252;-67
2021/01/21 00:08:04;;;;;;;11.50;7.90;;;3.10;90.90;10.70;98634.00;;;;5049235;28;20487;-67
2021/01/21 00:10:30;;;;;;;11.43;7.37;;;3.10;90.90;10.40;98622.00;;;;5048638;28;20274;-66
2021/01/21 00:12:55;;;;;;;10.37;8.47;;;3.10;90.90;10.60;98623.00;;;;5049266;28;20448;-66
2021/01/21 00:15:21;;;;;;;9.17;7.83;;;3.10;90.90;10.80;98627.00;;;;5048090;28;20633;-67
2021/01/21 00:17:47;;;;;;;11.63;8.07;;;3.10;90.90;10.70;98624.00;;;;5049177;28;20194;-66
2021/01/21 00:20:13;;;;;;;9.97;7.00;;;3.10;90.90;10.70;98629.00;;;;5049267;28;20594;-68
2021/01/21 00:22:39;;;;;;;9.38;7.63;;;3.10;90.90;10.70;98612.00;;;;5048760;28;20194;-66
2021/01/21 00:25:05;;;;;;;8.83;7.00;;;3.10;90.90;10.70;98622.00;;;;5048502;28;20192;-67
2021/01/21 00:27:31;;;;;;;10.93;7.72;;;3.10;91.30;10.80;98617.00;;;;5048443;28;20567;-66
2021/01/21 00:29:57;;;;;;;9.97;7.37;;;3.10;90.90;10.50;98610.00;;;;5048907;28;20193;-67
2021/01/21 00:32:23;;;;;;;10.23;6.97;;;3.10;90.90;10.70;98611.00;;;;5049276;28;20532;-66
2021/01/21 00:34:48;;;;;;;11.60;7.60;;;3.10;90.90;10.70;98627.00;;;;5050780;28;20186;-68
2021/01/21 00:37:14;;;;;;;9.70;7.40;;;3.10;90.90;10.60;98632.00;;;;5048750;28;20560;-68
2021/01/21 00:39:40;;;;;;;9.97;7.30;;;3.10;90.90;10.70;98625.00;;;;5049931;28;20684;-66
2021/01/21 00:42:05;;;;;;;10.70;7.07;;;3.10;90.90;10.70;98614.00;;;;5050877;28;20186;-68
2021/01/21 00:44:31;;;;;;;8.57;6.53;;;3.10;90.90;10.70;98623.00;;;;5050365;28;20285;-66
2021/01/21 00:46:57;;;;;;;11.73;7.10;;;3.10;90.90;10.70;98609.00;;;;5049409;28;20387;-67
2021/01/21 00:49:22;;;;;;;9.93;7.37;;;3.10;90.90;10.60;98603.00;;;;5048717;28;20202;-67
2021/01/21 00:51:49;;;;;;;11.40;7.27;;;3.10;90.90;10.80;98614.00;;;;5048869;28;20560;-68
2021/01/21 00:54:14;;;;;;;10.52;7.25;;;3.10;90.90;10.70;98614.00;;;;5048729;28;20214;-67
2021/01/21 00:56:41;;;;;;;8.87;6.37;;;3.10;90.90;10.60;98599.00;;;;5048323;28;20193;-67
2021/01/21 00:59:07;;;;;;;9.25;6.45;;;3.10;90.90;10.70;98612.00;;;;5049333;28;20209;-66
2021/01/21 01:01:33;;;;;;;9.32;6.55;;;3.10;90.90;10.50;98613.00;;;;5048672;28;20329;-67
2021/01/21 01:03:59;;;;;;;10.53;7.37;;;3.10;90.90;10.60;98599.00;;;;5048061;28;20228;-67
2021/01/21 01:06:24;;;;;;;9.50;6.60;;;3.10;90.90;10.80;98608.00;;;;5032419;28;20236;-68
2021/01/21 01:08:50;;;;;;;10.07;6.97;;;3.10;90.90;10.70;98603.00;;;;5050289;28;20221;-66
2021/01/21 01:11:16;;;;;;;10.63;7.33;;;3.10;90.90;10.50;98587.00;;;;5048491;28;20182;-67
2021/01/21 01:13:42;;;;;;;9.38;6.97;;;3.10;90.90;10.80;98596.00;;;;5048933;28;20754;-67
2021/01/21 01:16:10;;;;;;;11.30;7.53;;;3.10;90.90;10.60;98576.00;;;;5048748;28;20182;-67
2021/01/21 01:18:35;;;;;;;10.13;6.75;;;3.10;90.90;10.60;98586.00;;;;5065017;28;20754;-66
2021/01/21 01:21:02;;;;;;;8.20;5.80;;;3.10;90.90;10.60;98591.00;;;;5048804;28;20197;-68
2021/01/21 01:23:30;;;;;;;7.85;6.20;;;3.10;90.90;10.70;98582.00;;;;5032390;28;20208;-66
2021/01/21 01:25:56;;;;;;;9.85;6.53;;;3.10;90.90;10.70;98575.00;;;;5049522;28;20273;-67
2021/01/21 01:28:22;;;;;;;10.13;6.72;;;3.10;90.90;10.50;98581.00;;;;5048828;28;20570;-67
2021/01/21 01:30:48;;;;;;;10.43;7.50;;;3.10;90.90;10.30;98575.00;;;;5049594;28;20260;-67
2021/01/21 01:33:14;;;;;;;8.47;6.33;;;3.10;90.90;10.50;98576.00;;;;5031675;28;20708;-67
2021/01/21 01:35:39;;;;;;;9.80;7.00;;;3.10;90.90;10.50;98565.00;;;;5048477;28;20435;-67
2021/01/21 01:38:05;;;;;;;12.97;6.60;;;3.10;90.90;10.70;98573.00;;;;5048628;28;20252;-67
2021/01/21 01:40:31;;;;;;;7.80;5.87;;;3.10;90.90;10.70;98567.00;;;;5047864;28;20649;-67
2021/01/21 01:42:57;;;;;;;9.20;6.63;;;3.10;90.90;10.70;98568.00;;;;5048296;28;20276;-67
2021/01/21 01:45:22;;;;;;;10.77;6.17;;;3.10;90.90;10.40;98571.00;;;;5048088;28;20429;-68
2021/01/21 01:47:48;;;;;;;11.47;7.00;;;3.10;90.90;10.40;98562.00;;;;5048392;28;20222;-67
2021/01/21 01:50:14;;;;;;;9.17;6.57;;;3.10;91.30;10.60;98554.00;;;;5048060;28;20252;-67
2021/01/21 01:52:43;;;;;;;11.15;7.03;;;3.10;90.90;10.40;98563.00;;;;5047688;28;20194;-66
2021/01/21 01:55:18;;;;;;;10.13;7.22;;;3.10;90.90;10.60;98520.00;;;;5048181;28;20586;-67
2021/01/21 01:57:48;;;;;;;10.35;6.15;;;3.10;90.90;10.60;98552.00;;;;5048583;28;20197;-67
2021/01/21 02:00:14;;;;;;;8.93;6.45;;;3.10;90.90;10.50;98551.00;;;;5048013;28;20194;-67
2021/01/21 02:02:40;;;;;;;8.88;5.82;;;3.10;90.90;10.40;98552.00;;;;5048125;28;20216;-67
2021/01/21 02:05:06;;;;;;;8.60;6.00;;;3.10;91.00;10.60;98555.00;;;;5050416;28;20194;-67
2021/01/21 02:07:32;;;;;;;11.25;6.60;;;3.10;90.90;10.60;98530.00;;;;5050453;28;21041;-66
2021/01/21 02:09:59;;;;;;;11.83;6.77;;;3.10;91.00;10.60;98540.00;;;;5052486;28;20193;-67
2021/01/21 02:12:52;;;;;;;8.65;7.20;;;3.10;91.00;10.60;98534.00;;;;5052458;28;20265;-66
2021/01/21 02:15:21;;;;;;;9.07;6.15;;;3.10;91.00;10.30;98539.00;;;;5053490;28;20186;-67
2021/01/21 02:17:52;;;;;;;9.45;6.03;;;3.10;91.00;10.60;98529.00;;;;5052947;28;20609;-66
2021/01/21 02:21:01;;;;;;;9.23;6.00;;;3.10;91.00;10.40;98537.00;;;;5051716;28;20248;-66
2021/01/21 02:23:51;;;;;;;9.23;6.15;;;3.10;91.00;10.50;98538.00;;;;5051327;28;20194;-67
2021/01/21 02:26:35;;;;;;;8.27;6.13;;;3.10;91.00;10.50;98531.00;;;;5053481;28;20189;-67
2021/01/21 02:29:12;;;;;;;9.30;6.45;;;3.10;91.00;10.50;98525.00;;;;5051556;28;20440;-67
2021/01/21 02:32:06;;;;;;;9.45;6.07;;;3.10;90.90;10.40;98521.00;;;;5052018;28;20181;-66
2021/01/21 02:35:08;;;;;;;9.27;6.15;;;3.10;90.90;10.30;98518.00;;;;5052226;28;20200;-67
2021/01/21 02:37:35;;;;;;;8.70;5.93;;;3.10;91.00;10.40;98520.00;;;;5052776;28;20652;-67
2021/01/21 02:40:03;;;;;;;9.15;6.22;;;3.10;91.00;10.40;98513.00;;;;5051981;28;20260;-66
2021/01/21 02:42:29;;;;;;;9.77;6.00;;;3.10;91.00;10.40;98520.00;;;;5034605;28;20190;-67
2021/01/21 02:44:54;;;;;;;8.50;5.90;;;3.10;91.00;10.30;98525.00;;;;5053104;28;20235;-68
2021/01/21 02:47:22;;;;;;;8.63;5.83;;;3.10;90.90;10.40;98515.00;;;;5051179;28;20915;-66
2021/01/21 02:49:48;;;;;;;8.57;5.97;;;3.10;91.00;10.50;98512.00;;;;5051258;28;20185;-67
2021/01/21 02:52:50;;;;;;;7.93;5.40;;;3.10;91.00;10.50;98520.00;;;;5051417;28;20194;-66
2021/01/21 02:55:25;;;;;;;8.00;5.65;;;3.10;91.00;10.60;98519.00;;;;5051726;28;20235;-66
2021/01/21 02:58:16;;;;;;;7.22;5.70;;;3.10;91.00;10.40;98509.00;;;;5052073;28;20691;-67
2021/01/21 03:00:42;;;;;;;9.18;5.85;;;3.10;91.00;10.20;98516.00;;;;5051386;28;20264;-66
2021/01/21 03:03:13;;;;;;;9.33;6.50;;;3.10;91.00;10.50;98503.00;;;;5034771;28;20202;-67
2021/01/21 03:05:39;;;;;;;10.40;6.15;;;3.10;91.00;10.40;98522.00;;;;5051459;28;20187;-67
2021/01/21 03:08:06;;;;;;;8.43;5.93;;;3.10;91.00;10.60;98519.00;;;;5051489;28;20222;-67
2021/01/21 03:10:32;;;;;;;6.88;5.45;;;3.10;91.00;10.40;98528.00;;;;5034275;28;20444;-68
2021/01/21 03:12:58;;;;;;;8.43;6.60;;;3.10;91.00;10.40;98539.00;;;;5033577;28;20212;-67
2021/01/21 03:15:25;;;;;;;8.07;6.47;;;3.10;91.00;10.30;98528.00;;;;5051176;28;20193;-67
2021/01/21 03:17:50;;;;;;;8.90;6.35;;;3.10;91.00;10.40;98537.00;;;;5050161;28;20815;-67
2021/01/21 03:20:17;;;;;;;6.60;5.13;;;3.10;91.00;10.50;98535.00;;;;5051618;28;20178;-67
2021/01/21 03:22:43;;;;;;;7.85;5.38;;;3.10;91.00;10.30;98536.00;;;;5034291;28;20448;-67
2021/01/21 03:25:09;;;;;;;7.43;5.50;;;3.10;91.00;10.40;98538.00;;;;5050412;28;20181;-68
2021/01/21 03:27:35;;;;;;;7.80;5.55;;;3.10;91.00;10.40;98523.00;;;;5034645;28;20447;-67
2021/01/21 03:30:01;;;;;;;9.37;5.93;;;3.10;91.00;10.70;98538.00;;;;5051148;28;20309;-67
2021/01/21 03:32:27;;;;;;;9.32;6.05;;;3.10;91.00;10.50;98530.00;;;;5050222;28;20201;-67
2021/01/21 03:34:53;;;;;;;6.77;5.13;;;3.10;91.40;10.50;98523.00;;;;5050933;28;20322;-67
2021/01/21 03:37:18;;;;;;;9.40;5.77;;;3.10;91.00;10.40;98521.00;;;;5050782;28;20182;-67
2021/01/21 03:39:44;;;;;;;8.13;5.00;;;3.10;91.00;10.50;98525.00;;;;5050331;28;20599;-68
2021/01/21 03:42:10;;;;;;;6.80;4.90;;;3.10;91.00;10.40;98526.00;;;;5050715;28;20183;-66
2021/01/21 03:44:35;;;;;;;7.70;5.30;;;3.10;91.00;10.40;98490.00;;;;5050480;28;20198;-66
2021/01/21 03:47:01;;;;;;;8.67;5.77;;;3.10;91.00;10.30;98536.00;;;;5049975;28;20588;-66
2021/01/21 03:49:27;;;;;;;8.47;5.40;;;3.10;91.00;10.30;98528.00;;;;5050285;28;20285;-67
2021/01/21 03:51:52;;;;;;;7.70;5.30;;;3.10;91.00;10.40;98522.00;;;;5050293;28;20340;-68
2021/01/21 03:54:18;;;;;;;8.43;5.30;;;3.10;91.30;10.50;98536.00;;;;5051469;28;20194;-67
2021/01/21 03:56:44;;;;;;;6.37;4.80;;;3.10;91.00;10.50;98521.00;;;;5051807;28;20186;-67
2021/01/21 03:59:09;;;;;;;7.97;5.20;;;3.10;91.30;10.30;98528.00;;;;5051477;28;20206;-67
2021/01/21 04:01:35;;;;;;;7.70;5.80;;;3.10;91.00;10.30;98526.00;;;;5033324;28;20268;-67
2021/01/21 04:04:01;;;;;;;7.73;5.53;;;3.10;91.00;10.50;98525.00;;;;5051116;28;20198;-67
2021/01/21 04:06:26;;;;;;;8.73;5.73;;;3.10;91.00;10.00;98526.00;;;;5049885;28;20433;-67
2021/01/21 04:08:52;;;;;;;7.57;5.47;;;3.10;91.00;10.40;98528.00;;;;5049591;28;20244;-66
2021/01/21 04:11:18;;;;;;;8.70;5.50;;;3.10;91.00;10.10;98525.00;;;;5050398;28;20183;-67
2021/01/21 04:13:43;;;;;;;7.30;5.80;;;3.10;91.00;10.30;98526.00;;;;5048916;28;20725;-67
2021/01/21 04:16:09;;;;;;;7.10;5.30;;;3.10;91.00;10.30;98523.00;;;;5050362;28;20189;-66
2021/01/21 04:18:35;;;;;;;8.23;5.43;;;3.10;91.00;10.30;98524.00;;;;5049617;28;20206;-66
2021/01/21 04:21:00;;;;;;;7.13;4.90;;;3.10;91.00;10.50;98540.00;;;;5050598;28;20193;-67
2021/01/21 04:23:26;;;;;;;7.23;5.13;;;3.10;91.00;10.40;98530.00;;;;5050015;28;20721;-67
2021/01/21 04:25:52;;;;;;;7.27;4.60;;;3.10;91.00;10.60;98531.00;;;;5050106;28;20185;-66
2021/01/21 04:28:17;;;;;;;6.30;4.23;;;3.10;91.00;10.50;98529.00;;;;5048569;28;20278;-66
2021/01/21 04:30:43;;;;;;;8.30;5.60;;;3.10;91.00;10.50;98536.00;;;;5049688;28;20182;-66
2021/01/21 04:33:09;;;;;;;7.47;4.63;;;3.10;91.00;10.30;98527.00;;;;5050895;28;20206;-66
2021/01/21 04:35:34;;;;;;;8.73;5.77;;;3.10;91.00;10.30;98529.00;;;;5049393;28;20251;-67
2021/01/21 04:38:00;;;;;;;7.63;5.47;;;3.10;91.00;10.50;98522.00;;;;5050507;28;20439;-66
2021/01/21 04:40:26;;;;;;;8.00;5.57;;;3.10;91.00;10.30;98537.00;;;;5049759;28;20541;-67
2021/01/21 04:42:53;;;;;;;5.97;4.47;;;3.10;91.00;10.30;98530.00;;;;5032129;28;20283;-66
2021/01/21 04:45:19;;;;;;;6.82;4.45;;;3.10;91.00;10.30;98528.00;;;;5032784;28;20182;-67
2021/01/21 04:47:45;;;;;;;7.60;4.73;;;3.10;91.00;10.30;98522.00;;;;5049297;28;20245;-66
2021/01/21 04:50:11;;;;;;;9.30;5.67;;;3.10;91.00;10.20;98522.00;;;;5049079;28;20201;-67
2021/01/21 04:52:43;;;;;;;9.55;4.65;;;3.10;91.00;10.10;98523.00;;;;5032196;28;20444;-66
2021/01/21 04:55:42;;;;;;;8.40;5.50;;;3.10;91.00;10.30;98521.00;;;;5049405;28;20208;-66
2021/01/21 04:58:29;;;;;;;7.10;4.70;;;3.10;91.00;10.30;98505.00;;;;5045690;28;20225;-66
2021/01/21 05:00:55;;;;;;;7.25;4.22;;;3.10;91.00;10.10;98508.00;;;;5049335;28;20190;-66
2021/01/21 05:03:21;;;;;;;7.33;5.33;;;3.10;91.00;10.40;98518.00;;;;5048231;28;20198;-66
2021/01/21 05:05:47;;;;;;;7.50;4.90;;;3.10;91.40;10.30;98509.00;;;;5032580;28;20327;-66
2021/01/21 05:08:13;;;;;;;6.30;4.13;;;3.10;91.40;10.30;98497.00;;;;5048659;28;20595;-66
2021/01/21 05:10:38;;;;;;;7.10;4.70;;;3.10;91.00;10.20;98505.00;;;;5048310;28;20448;-66
2021/01/21 05:13:04;;;;;;;6.53;4.67;;;3.10;91.00;10.30;98534.00;;;;5031884;28;20467;-66
2021/01/21 05:15:30;;;;;;;6.47;4.60;;;3.10;91.00;10.30;98536.00;;;;5032464;28;20260;-66
2021/01/21 05:17:56;;;;;;;8.40;5.33;;;3.10;91.00;10.50;98526.00;;;;5048006;28;20202;-67
2021/01/21 05:20:25;;;;;;;6.68;4.70;;;3.10;91.00;10.20;98530.00;;;;5032306;28;20288;-67
2021/01/21 05:23:01;;;;;;;7.65;5.15;;;3.10;91.00;10.20;98542.00;;;;5048135;28;20561;-66
2021/01/21 05:25:27;;;;;;;6.93;4.40;;;3.10;91.00;10.30;98546.00;;;;5064827;28;20391;-66
2021/01/21 05:27:57;;;;;;;5.85;4.13;;;3.10;91.00;10.20;98554.00;;;;5048487;28;20680;-66
2021/01/21 05:30:26;;;;;;;7.53;4.93;;;3.10;91.00;10.20;98552.00;;;;5048717;28;20174;-66
2021/01/21 05:32:52;;;;;;;8.05;4.75;;;3.10;91.00;10.30;98554.00;;;;5047873;28;20198;-66
2021/01/21 05:35:18;;;;;;;6.20;4.18;;;3.10;91.00;10.30;98559.00;;;;5048171;28;20213;-67
2021/01/21 05:37:44;;;;;;;6.90;4.47;;;3.10;91.00;10.30;98547.00;;;;5047470;28;20286;-66
2021/01/21 05:40:11;;;;;;;6.97;4.60;;;3.10;91.00;10.20;98548.00;;;;5047749;28;20487;-67
2021/01/21 05:42:40;;;;;;;6.65;4.55;;;3.10;91.00;10.10;98527.00;;;;5031919;28;20208;-67
2021/01/21 05:45:06;;;;;;;8.18;4.70;;;3.10;91.00;10.40;98520.00;;;;5047838;28;20319;-66
2021/01/21 05:47:33;;;;;;;7.35;4.45;;;3.10;91.00;10.40;98514.00;;;;5048101;28;20260;-66
2021/01/21 05:50:00;;;;;;;7.15;4.88;;;3.10;91.00;10.20;98510.00;;;;5048712;28;20244;-66
2021/01/21 05:52:26;;;;;;;6.75;4.20;;;3.10;91.00;10.20;98507.00;;;;5031362;28;20189;-66
2021/01/21 05:54:51;;;;;;;7.83;4.33;;;3.10;91.40;10.20;98505.00;;;;5031847;28;20784;-66
2021/01/21 05:57:17;;;;;;;6.70;4.10;;;3.10;91.00;10.30;98522.00;;;;5031834;28;20181;-65
2021/01/21 05:59:43;;;;;;;7.80;5.20;;;3.10;91.00;10.10;98503.00;;;;5047371;28;20271;-68
2021/01/21 06:02:08;;;;;;;6.83;4.37;;;3.10;91.00;10.30;98507.00;;;;5048458;28;20202;-66
2021/01/21 06:04:34;;;;;;;7.17;4.53;;;3.10;91.00;10.30;98505.00;;;;5031698;28;20599;-66
2021/01/21 06:07:00;;;;;;;8.43;4.80;;;3.10;91.00;10.30;98503.00;;;;5047429;28;20186;-67
2021/01/21 06:09:30;;;;;;;7.00;4.63;;;3.10;91.00;10.10;98500.00;;;;5049403;28;20208;-67
2021/01/21 06:12:00;;;;;;;7.68;3.60;;;3.10;91.00;10.20;98499.00;;;;5048464;28;20414;-66
2021/01/21 06:14:26;;;;;;;6.30;4.05;;;3.10;91.00;10.30;98521.00;;;;5030614;28;20565;-67
2021/01/21 06:16:52;;;;;;;8.17;4.13;;;3.10;91.00;10.20;98516.00;;;;5031633;28;20182;-66
2021/01/21 06:19:18;;;;;;;6.80;4.25;;;3.10;91.00;10.00;98521.00;;;;5048260;28;20453;-66
2021/01/21 06:21:54;;;;;;;5.53;4.03;;;3.10;91.00;10.10;98525.00;;;;5047634;28;20180;-66
2021/01/21 06:24:19;;;;;;;6.78;4.43;;;3.10;91.00;10.30;98536.00;;;;5047927;28;20305;-66
2021/01/21 06:26:49;;;;;;;6.47;4.30;;;3.10;91.10;10.40;98529.00;;;;5030693;28;20265;-66
2021/01/21 06:29:19;;;;;;;6.70;3.88;;;3.10;91.00;10.40;98542.00;;;;5047591;28;20218;-66
2021/01/21 06:31:49;;;;;;;7.18;3.90;;;3.10;91.00;10.30;98515.00;;;;5048262;28;20186;-66
2021/01/21 06:34:35;;;;;;;5.50;3.90;;;3.10;91.00;10.00;98542.00;;;;5047549;28;20198;-66
2021/01/21 06:37:21;;;;;;;7.72;4.93;;;3.10;91.00;10.10;98548.00;;;;5048174;28;20185;-66
2021/01/21 06:39:47;;;;;;;5.97;3.30;;;3.10;91.00;10.20;98549.00;;;;5047346;28;20258;-66
2021/01/21 06:42:19;;;;;;;6.70;4.20;;;3.10;91.00;10.00;98556.00;;;;5048715;28;20633;-68
2021/01/21 06:44:45;;;;;;;6.28;3.83;;;3.10;91.00;10.00;98552.00;;;;5047852;28;20221;-67
2021/01/21 06:47:10;;;;;;;6.13;4.07;;;3.10;91.10;10.40;98539.00;;;;5031304;28;20220;-67
2021/01/21 06:49:37;;;;;;;7.80;4.37;;;3.10;91.00;10.20;98538.00;;;;5047212;28;20190;-66
2021/01/21 06:52:02;;;;;;;6.45;4.28;;;3.10;91.00;10.20;98507.00;;;;5049543;28;20214;-66
2021/01/21 06:54:28;;;;;;;10.50;4.57;;;3.10;91.00;9.90;98505.00;;;;5051102;28;20244;-66
2021/01/21 06:56:54;;;;;;;6.20;4.00;;;3.10;91.10;10.00;98499.00;;;;5050969;28;20719;-66
2021/01/21 06:59:54;;;;;;;7.17;4.37;;;3.10;91.10;10.00;98502.00;;;;5051290;28;20610;-66
2021/01/21 07:02:43;;;;;;;6.28;3.88;;;3.10;91.10;10.00;98513.00;;;;5051013;28;20182;-67
2021/01/21 07:05:15;;;;;;;5.78;4.47;;;3.10;91.10;10.10;98512.00;;;;5034136;28;20672;-66
2021/01/21 07:07:56;;;;;;;6.88;4.20;;;3.00;91.00;9.90;98514.00;;;;5051754;28;20217;-67
2021/01/21 07:10:36;;;;;;;8.80;4.03;;;3.10;91.10;10.00;98513.00;;;;5051628;28;20257;-67
2021/01/21 07:13:11;;;;;;;6.25;3.83;;;3.10;91.10;9.90;98521.00;;;;5068096;28;20572;-67
2021/01/21 07:15:42;;;;;;;7.05;4.40;;;3.10;91.40;10.20;98543.00;;;;5051209;28;20189;-66
2021/01/21 07:18:22;;;;;;;6.45;3.97;;;3.10;91.10;10.10;98544.00;;;;5050570;28;20281;-67
2021/01/21 07:21:05;;;;;;;6.32;3.95;;;3.10;91.10;9.80;98560.00;;;;5050938;28;20797;-67
2021/01/21 07:23:54;;;;;;;7.13;4.70;;;3.10;91.10;9.90;98557.00;;;;5051798;28;20795;-66
2021/01/21 07:26:31;;;;;;;7.15;4.38;;;3.10;91.40;9.90;98550.00;;;;5051164;28;20265;-67
2021/01/21 07:29:11;;;;;;;6.03;4.22;;;3.10;91.10;10.10;98558.00;;;;5050750;28;20280;-67
2021/01/21 07:31:52;;;;;;;7.43;4.40;;;3.10;91.10;10.00;98514.00;;;;5049665;28;20204;-67
2021/01/21 07:34:24;;;;;;;6.43;4.13;;;3.10;91.10;9.90;98559.00;;;;5067171;28;20646;-67
2021/01/21 07:37:11;;;;;;;6.03;4.15;;;3.10;91.10;10.00;98556.00;;;;5050216;28;20197;-67
2021/01/21 07:40:02;;;;;;;6.40;4.35;;;3.10;91.10;9.80;98575.00;;;;5072678;28;20237;-67
2021/01/21 07:42:36;;;;;;;5.70;4.00;;;3.10;91.10;9.70;98559.00;;;;5049050;28;20213;-67
2021/01/21 07:45:19;;;;;;;5.32;3.50;;;3.10;91.10;10.00;98569.00;;;;5050084;28;20182;-67
2021/01/21 07:47:46;;;;;;;5.65;3.83;;;3.10;91.10;10.00;98550.00;;;;5050850;28;20239;-67
2021/01/21 07:50:39;;;;;;;8.82;4.00;;;3.10;91.10;9.80;98537.00;;;;5016633;28;20239;-67
2021/01/21 07:53:06;;;;;;;6.18;4.32;;;3.10;91.10;10.10;98527.00;;;;5049770;28;20734;-67
2021/01/21 07:55:33;;;;;;;7.35;4.55;;;3.10;91.10;10.10;98539.00;;;;5000002;28;20182;-67
2021/01/21 07:58:16;;;;;;;6.10;3.50;;;3.10;91.10;10.00;98547.00;;;;5016423;28;20202;-68
2021/01/21 08:00:42;;;;;;;5.82;3.95;;;3.10;91.10;10.20;98542.00;;;;5049754;28;20178;-67
2021/01/21 08:03:07;;;;;;;7.07;3.78;;;3.10;91.10;10.10;98550.00;;;;5048930;28;20206;-67
2021/01/21 08:05:33;;;;;;;6.23;3.87;;;3.10;91.40;10.20;98543.00;;;;5049814;28;20186;-67
2021/01/21 08:08:00;;;;;;;7.37;3.80;;;3.10;91.10;10.20;98557.00;;;;5048796;28;20827;-67
2021/01/21 08:10:34;;;;;;;6.45;3.60;;;3.10;91.10;10.30;98549.00;;;;5048644;28;20200;-68
2021/01/21 08:13:13;;;;;;;7.07;4.10;;;3.10;91.10;10.30;98555.00;;;;5049335;28;20190;-68
2021/01/21 08:15:39;;;;;;;7.53;3.80;;;3.10;91.10;10.30;98562.00;;;;5049801;28;20712;-67
2021/01/21 08:18:05;;;;;;;7.60;4.17;;;3.10;91.10;10.40;98558.00;;;;5050029;28;20288;-67
2021/01/21 08:20:33;;;;;;;5.47;3.37;;;3.10;91.10;10.40;98562.00;;;;5032517;28;20273;-68
2021/01/21 08:23:04;;;;;;;5.60;3.55;;;3.10;91.10;10.20;98571.00;;;;5049170;28;20426;-67
2021/01/21 08:25:48;;;;;;;5.00;3.45;;;3.10;91.10;10.40;98570.00;;;;5032833;28;20193;-67
2021/01/21 08:28:16;;;;;;;5.50;3.42;;;3.10;91.10;10.30;98565.00;;;;5049084;28;20222;-67
2021/01/21 08:30:42;;;;;;;5.82;4.00;;;3.10;91.10;10.30;98560.00;;;;5048215;28;20191;-67
2021/01/21 08:33:24;;;;;;;5.47;3.37;;;3.10;91.00;10.30;98568.00;;;;4999860;28;20209;-67
2021/01/21 08:35:51;;;;;;;5.13;3.30;;;3.10;91.10;10.30;98572.00;;;;5066259;28;20188;-67
2021/01/21 08:38:24;;;;;;;6.10;4.20;;;3.10;91.10;10.40;98589.00;;;;5048710;28;20232;-67
2021/01/21 08:40:51;;;;;;;6.20;3.90;;;3.10;91.10;10.30;98591.00;;;;5049023;28;20580;-67
2021/01/21 08:43:18;;;;;;;5.95;3.58;;;3.10;91.10;10.50;98595.00;;;;5048926;28;20673;-67
2021/01/21 08:45:44;;;;;;;5.20;3.35;;;3.10;91.10;10.50;98596.00;;;;5047830;28;20186;-67
2021/01/21 08:48:10;;;;;;;5.70;3.40;;;3.10;91.00;10.60;98603.00;;;;5048456;28;20554;-67
2021/01/21 08:50:40;;;;;;;6.53;3.70;;;3.10;91.00;10.40;98607.00;;;;5048385;28;20182;-68
2021/01/21 08:53:08;;;;;;;4.97;3.28;;;3.10;91.10;10.30;98612.00;;;;5049433;28;20459;-67
2021/01/21 08:55:47;;;;;;;5.60;3.65;;;3.10;91.00;10.40;98626.00;;;;5047922;28;20541;-67
2021/01/21 08:58:17;;;;;;;5.50;3.70;;;3.10;91.00;10.50;98613.00;;;;5048728;28;20190;-67
2021/01/21 09:01:02;;;;;;;5.50;3.35;;;3.10;91.10;10.40;98609.00;;;;5016080;28;20178;-67
2021/01/21 09:03:53;;;;;;;5.75;3.85;;;3.10;91.00;10.50;98619.00;;;;5047514;28;20217;-67
2021/01/21 09:06:20;;;;;;;5.70;3.03;;;3.10;91.00;10.60;98617.00;;;;5048851;28;20181;-67
2021/01/21 09:08:56;;;;;;;6.22;3.92;;;3.10;91.00;10.60;98638.00;;;;5015876;28;20216;-67
2021/01/21 09:11:32;;;;;;;5.32;3.30;;;3.10;91.00;10.60;98628.00;;;;5048549;28;20220;-67
2021/01/21 09:13:59;;;;;;;5.68;3.25;;;3.10;91.10;10.50;98633.00;;;;5048035;28;20704;-67
2021/01/21 09:16:55;;;;;;;5.30;3.42;;;3.10;91.10;10.40;98634.00;;;;5031712;28;20202;-67
2021/01/21 09:19:26;;;;;;;5.00;3.15;;;3.10;91.00;10.40;98640.00;;;;5029531;28;20214;-67
2021/01/21 09:22:06;;;;;;;6.35;3.70;;;3.10;91.00;10.30;98644.00;;;;5050632;28;20209;-67
2021/01/21 09:24:32;;;;;;;7.25;3.75;;;3.10;91.00;10.40;98648.00;;;;5047946;28;20277;-67
2021/01/21 09:27:16;;;;;;;4.75;3.03;;;3.20;91.10;10.60;98649.00;;;;5047833;28;20186;-67
2021/01/21 09:29:58;;;;;;;6.28;3.53;;;3.20;91.10;10.50;98646.00;;;;5047658;28;20210;-67
2021/01/21 09:32:29;;;;;;;5.40;3.15;;;3.20;91.10;10.60;98640.00;;;;5047476;28;20201;-67
2021/01/21 09:35:11;;;;;;;6.07;3.13;;;3.20;91.10;10.60;98648.00;;;;5047159;28;20178;-67
2021/01/21 09:37:39;;;;;;;4.80;3.33;;;3.20;91.10;10.50;98649.00;;;;5047174;28;20269;-67
2021/01/21 09:40:09;;;;;;;6.25;3.75;;;3.20;91.10;10.50;98632.00;;;;5031825;28;20230;-67
2021/01/21 09:42:35;;;;;;;5.10;3.15;;;3.20;91.10;10.30;98641.00;;;;5047059;28;20269;-67
2021/01/21 09:45:01;;;;;;;6.17;3.53;;;3.20;91.10;10.50;98647.00;;;;5014296;28;20273;-67
2021/01/21 09:47:27;;;;;;;4.77;3.50;;;3.20;91.10;10.60;98646.00;;;;5047623;28;20228;-67
2021/01/21 09:49:53;;;;;;;5.55;3.20;;;3.20;91.10;10.50;98646.00;;;;5030856;28;20193;-67
2021/01/21 09:52:19;;;;;;;5.50;3.27;;;3.20;91.10;10.60;98628.00;;;;5047260;28;20189;-67
2021/01/21 09:54:44;;;;;;;6.40;3.53;;;3.20;91.10;10.50;98623.00;;;;5014627;28;20240;-67
2021/01/21 09:57:10;;;;;;;5.27;3.23;;;3.20;91.10;10.60;98611.00;;;;5030937;28;20209;-67
2021/01/21 09:59:37;;;;;;;5.80;3.10;;;3.20;91.10;10.70;98610.00;;;;5030511;28;20737;-67
2021/01/21 10:02:03;;;;;;;5.28;3.25;;;3.20;91.10;10.50;98612.00;;;;5047434;28;20965;-67
2021/01/21 10:04:29;;;;;;;5.60;3.40;;;3.20;91.10;10.70;98612.00;;;;5030600;28;20201;-67
2021/01/21 10:06:55;;;;;;;6.30;3.40;;;3.20;91.10;10.60;98620.00;;;;5029993;28;20684;-67
2021/01/21 10:09:21;;;;;;;5.00;3.40;;;3.20;91.10;10.70;98611.00;;;;5046613;28;20229;-68
2021/01/21 10:11:47;;;;;;;5.30;3.88;;;3.20;91.10;10.60;98609.00;;;;5030999;28;20419;-68
2021/01/21 10:14:13;;;;;;;5.77;3.33;;;3.20;91.10;10.70;98610.00;;;;5030870;28;20202;-68
2021/01/21 10:16:39;;;;;;;5.83;3.27;;;3.20;91.10;10.70;98621.00;;;;5047382;28;20257;-67
2021/01/21 10:19:04;;;;;;;5.47;3.63;;;3.20;91.50;10.80;98623.00;;;;5047903;28;20351;-67
2021/01/21 10:21:30;;;;;;;5.30;3.33;;;3.20;91.10;10.80;98624.00;;;;5045611;28;20671;-68
2021/01/21 10:23:56;;;;;;;5.50;2.83;;;3.20;91.10;10.80;98627.00;;;;5047136;28;20195;-68
2021/01/21 10:26:21;;;;;;;5.77;3.37;;;3.20;91.10;10.70;98625.00;;;;5048619;28;20552;-68
2021/01/21 10:28:48;;;;;;;5.23;3.97;;;3.20;91.10;10.70;98620.00;;;;5051902;28;20581;-68
2021/01/21 10:31:13;;;;;;;6.22;3.50;;;3.20;91.10;10.80;98621.00;;;;5051781;28;20419;-68
2021/01/21 10:33:41;;;;;;;5.63;3.43;;;3.20;91.10;10.70;98615.00;;;;5050878;28;20206;-68
2021/01/21 10:36:07;;;;;;;5.50;3.63;;;3.20;91.10;10.90;98632.00;;;;5053205;28;20227;-68
2021/01/21 10:38:34;;;;;;;5.70;3.88;;;3.20;91.10;10.80;98635.00;;;;5051013;28;20229;-68
2021/01/21 10:41:01;;;;;;;6.60;3.03;;;3.20;91.10;10.70;98646.00;;;;5051306;28;20186;-68
2021/01/21 10:43:30;;;;;;;5.95;3.65;;;3.30;91.20;10.80;98644.00;;;;5051528;28;20545;-68
2021/01/21 10:45:55;;;;;;;5.43;3.53;;;3.30;91.20;10.90;98617.00;;;;5051273;28;20248;-68
2021/01/21 10:48:21;;;;;;;5.33;3.23;;;3.20;91.20;10.80;98644.00;;;;5050518;28;20218;-68
2021/01/21 10:50:47;;;;;;;5.80;3.53;;;3.30;91.20;10.80;98635.00;;;;5068262;28;20183;-68
2021/01/21 10:53:12;;;;;;;6.10;3.53;;;3.30;91.20;10.80;98642.00;;;;5034571;28;20241;-68
2021/01/21 10:55:38;;;;;;;5.07;3.50;;;3.30;91.20;10.80;98631.00;;;;5051169;28;20253;-67
2021/01/21 10:58:05;;;;;;;6.00;4.07;;;3.30;91.20;10.90;98632.00;;;;5051477;28;20233;-68
2021/01/21 11:00:30;;;;;;;5.05;3.42;;;3.30;91.30;10.90;98640.00;;;;5051002;28;20432;-68
2021/01/21 11:02:57;;;;;;;5.10;3.57;;;3.30;91.20;10.90;98631.00;;;;5034073;28;20206;-68
2021/01/21 11:05:22;;;;;;;5.45;3.40;;;3.30;91.30;10.80;98631.00;;;;5051356;28;20174;-69
2021/01/21 11:07:48;;;;;;;6.17;4.00;;;3.30;91.30;10.70;98628.00;;;;5051402;28;20232;-68
2021/01/21 11:10:14;;;;;;;5.87;4.00;;;3.30;91.30;10.70;98630.00;;;;5051255;28;20544;-67
2021/01/21 11:12:39;;;;;;;6.40;3.50;;;3.30;91.30;10.80;98642.00;;;;5051283;28;20198;-68